createdAt,value
2023-03-23T00:00:19.609Z,11.62
2023-03-23T00:01:19.584Z,11.52
2023-03-23T00:02:19.573Z,11.51
2023-03-23T00:03:19.572Z,11.54
2023-03-23T00:04:19.561Z,11.65
2023-03-23T00:05:19.567Z,11.59
2023-03-23T00:06:19.532Z,11.59
2023-03-23T00:07:19.518Z,11.62
2023-03-23T00:08:19.515Z,11.62
2023-03-23T00:09:19.496Z,11.59
2023-03-23T00:10:19.490Z,11.59
2023-03-23T00:11:19.477Z,11.63
2023-03-23T00:12:19.470Z,11.62
2023-03-23T00:13:20.458Z,11.59
2023-03-23T00:14:19.441Z,11.54
2023-03-23T00:15:19.429Z,11.66
2023-03-23T00:16:19.428Z,11.59
2023-03-23T00:17:19.407Z,11.55
2023-03-23T00:18:19.414Z,11.68
2023-03-23T00:19:19.388Z,11.55
2023-03-23T00:20:19.373Z,11.59
2023-03-23T00:21:19.380Z,11.55
2023-03-23T00:22:19.354Z,11.59
2023-03-23T00:23:19.336Z,11.62
2023-03-23T00:24:19.342Z,11.60
2023-03-23T00:25:19.343Z,11.63
2023-03-23T00:26:19.310Z,11.59
2023-03-23T00:27:19.290Z,11.63
2023-03-23T00:28:19.307Z,11.63
2023-03-23T00:29:19.277Z,11.59
2023-03-23T00:30:19.261Z,11.63
2023-03-23T00:31:19.247Z,11.68
2023-03-23T00:32:19.249Z,11.69
2023-03-23T00:33:19.251Z,11.70
2023-03-23T00:34:19.222Z,11.72
2023-03-23T00:35:19.228Z,11.68
2023-03-23T00:36:19.191Z,11.69
2023-03-23T00:37:19.204Z,11.68
2023-03-23T00:38:19.183Z,11.66
2023-03-23T00:39:19.171Z,11.66
2023-03-23T00:40:19.175Z,11.68
2023-03-23T00:41:19.135Z,11.66
2023-03-23T00:42:19.128Z,11.70
2023-03-23T00:43:19.128Z,11.68
2023-03-23T00:44:22.007Z,11.69
2023-03-23T00:45:19.097Z,11.72
2023-03-23T00:46:19.100Z,11.73
2023-03-23T00:47:19.069Z,11.68
2023-03-23T00:48:19.060Z,11.69
2023-03-23T00:49:19.056Z,11.70
2023-03-23T00:50:22.247Z,11.69
2023-03-23T00:51:20.029Z,11.70
2023-03-23T00:52:19.019Z,11.73
2023-03-23T00:53:19.027Z,11.72
2023-03-23T00:54:19.015Z,11.72
2023-03-23T00:55:18.982Z,11.73
2023-03-23T00:56:18.978Z,11.73
2023-03-23T00:57:18.957Z,11.77
2023-03-23T00:58:18.953Z,11.73
2023-03-23T00:59:18.938Z,11.75
2023-03-23T01:00:18.935Z,11.75
2023-03-23T01:01:18.921Z,11.73
2023-03-23T01:02:18.905Z,11.83
2023-03-23T01:03:18.889Z,11.73
2023-03-23T01:04:18.889Z,11.83
2023-03-23T01:05:18.867Z,11.80
2023-03-23T01:06:18.862Z,11.77
2023-03-23T01:07:18.861Z,11.84
2023-03-23T01:08:18.840Z,11.87
2023-03-23T01:09:18.850Z,11.77
2023-03-23T01:10:18.813Z,11.81
2023-03-23T01:11:18.796Z,11.73
2023-03-23T01:12:18.786Z,11.83
2023-03-23T01:13:18.796Z,11.84
2023-03-23T01:14:18.796Z,11.81
2023-03-23T01:15:18.759Z,11.88
2023-03-23T01:16:18.742Z,11.88
2023-03-23T01:17:18.743Z,11.86
2023-03-23T01:18:18.720Z,11.84
2023-03-23T01:19:19.725Z,11.87
2023-03-23T01:20:18.696Z,11.94
2023-03-23T01:21:18.684Z,11.88
2023-03-23T01:22:18.679Z,11.94
2023-03-23T01:23:18.666Z,11.80
2023-03-23T01:24:18.658Z,11.87
2023-03-23T01:25:18.666Z,11.84
2023-03-23T01:26:18.630Z,11.84
2023-03-23T01:27:18.633Z,11.83
2023-03-23T01:28:18.607Z,11.84
2023-03-23T01:29:18.598Z,11.88
2023-03-23T01:30:18.580Z,11.86
2023-03-23T01:31:18.575Z,11.88
2023-03-23T01:32:18.575Z,11.95
2023-03-23T01:33:18.555Z,11.94
2023-03-23T01:34:18.540Z,11.97
2023-03-23T01:35:18.546Z,11.99
2023-03-23T01:36:18.515Z,11.99
2023-03-23T01:37:18.506Z,12.00
2023-03-23T01:38:18.499Z,12.00
2023-03-23T01:39:18.490Z,12.00
2023-03-23T01:40:18.472Z,11.97
2023-03-23T01:41:18.487Z,12.07
2023-03-23T01:42:18.449Z,12.02
2023-03-23T01:43:18.441Z,12.04
2023-03-23T01:44:18.433Z,12.00
2023-03-23T01:45:18.421Z,11.97
2023-03-23T01:46:18.409Z,11.97
2023-03-23T01:47:18.406Z,12.00
2023-03-23T01:48:18.387Z,11.99
2023-03-23T01:49:18.380Z,12.02
2023-03-23T01:50:18.358Z,12.00
2023-03-23T01:51:18.356Z,12.02
2023-03-23T01:52:18.340Z,12.00
2023-03-23T01:53:18.340Z,12.00
2023-03-23T01:54:18.324Z,12.00
2023-03-23T01:55:18.306Z,12.03
2023-03-23T01:56:18.295Z,12.04
2023-03-23T01:57:18.313Z,11.95
2023-03-23T01:58:19.283Z,12.03
2023-03-23T01:59:18.286Z,11.90
2023-03-23T02:00:18.254Z,12.04
2023-03-23T02:01:18.253Z,12.00
2023-03-23T02:02:18.226Z,12.04
2023-03-23T02:03:18.218Z,11.94
2023-03-23T02:04:18.213Z,12.03
2023-03-23T02:05:18.211Z,12.06
2023-03-23T02:06:18.185Z,12.06
2023-03-23T02:07:18.180Z,12.10
2023-03-23T02:08:18.162Z,12.21
2023-03-23T02:09:18.151Z,12.13
2023-03-23T02:10:19.139Z,12.13
2023-03-23T02:11:21.772Z,12.13
2023-03-23T02:12:18.112Z,12.20
2023-03-23T02:13:18.127Z,12.15
2023-03-23T02:14:18.095Z,12.18
2023-03-23T02:15:18.084Z,12.15
2023-03-23T02:16:18.074Z,12.20
2023-03-23T02:17:18.055Z,12.18
2023-03-23T02:18:18.044Z,12.25
2023-03-23T02:19:18.034Z,12.25
2023-03-23T02:20:18.023Z,12.29
2023-03-23T02:21:18.028Z,12.22
2023-03-23T02:22:17.998Z,12.21
2023-03-23T02:23:17.990Z,12.21
2023-03-23T02:24:17.971Z,12.22
2023-03-23T02:25:17.968Z,12.22
2023-03-23T02:26:17.960Z,12.22
2023-03-23T02:27:17.958Z,12.24
2023-03-23T02:28:17.933Z,12.32
2023-03-23T02:29:17.941Z,12.31
2023-03-23T02:30:17.906Z,12.36
2023-03-23T02:31:17.901Z,12.32
2023-03-23T02:32:17.884Z,12.27
2023-03-23T02:33:17.883Z,12.32
2023-03-23T02:34:17.870Z,12.24
2023-03-23T02:35:17.883Z,12.25
2023-03-23T02:36:17.846Z,12.29
2023-03-23T02:37:17.838Z,12.29
2023-03-23T02:38:17.815Z,12.25
2023-03-23T02:39:17.808Z,12.13
2023-03-23T02:40:17.796Z,12.27
2023-03-23T02:41:17.793Z,12.13
2023-03-23T02:42:17.796Z,12.24
2023-03-23T02:43:17.762Z,12.21
2023-03-23T02:44:17.762Z,12.02
2023-03-23T02:45:17.758Z,12.12
2023-03-23T02:46:17.721Z,12.03
2023-03-23T02:47:17.722Z,12.06
2023-03-23T02:48:17.714Z,12.02
2023-03-23T02:49:17.690Z,12.13
2023-03-23T02:50:17.681Z,12.03
2023-03-23T02:51:17.672Z,12.09
2023-03-23T02:52:17.656Z,12.04
2023-03-23T02:53:17.655Z,12.09
2023-03-23T02:54:17.638Z,12.06
2023-03-23T02:55:17.638Z,12.07
2023-03-23T02:56:17.608Z,12.00
2023-03-23T02:57:17.621Z,12.09
2023-03-23T02:58:17.617Z,12.09
2023-03-23T02:59:17.587Z,12.02
2023-03-23T03:00:17.572Z,12.09
2023-03-23T03:01:17.598Z,12.03
2023-03-23T03:02:17.542Z,12.06
2023-03-23T03:03:17.538Z,12.09
2023-03-23T03:04:17.525Z,12.09
2023-03-23T03:05:17.528Z,12.09
2023-03-23T03:06:17.500Z,12.17
2023-03-23T03:07:24.648Z,12.18
2023-03-23T03:08:17.486Z,12.20
2023-03-23T03:09:17.473Z,12.15
2023-03-23T03:10:17.543Z,12.17
2023-03-23T03:11:17.460Z,12.22
2023-03-23T03:12:17.456Z,12.15
2023-03-23T03:13:17.457Z,12.12
2023-03-23T03:14:17.408Z,12.06
2023-03-23T03:15:17.397Z,12.04
2023-03-23T03:16:17.398Z,12.12
2023-03-23T03:17:17.398Z,12.04
2023-03-23T03:18:17.389Z,12.09
2023-03-23T03:19:18.345Z,12.17
2023-03-23T03:20:17.345Z,12.04
2023-03-23T03:21:17.333Z,12.12
2023-03-23T03:22:17.316Z,12.10
2023-03-23T03:23:17.325Z,12.17
2023-03-23T03:24:17.293Z,12.10
2023-03-23T03:25:18.061Z,12.21
2023-03-23T03:26:17.276Z,12.13
2023-03-23T03:27:17.280Z,12.22
2023-03-23T03:28:17.257Z,12.21
2023-03-23T03:29:17.247Z,12.13
2023-03-23T03:30:17.234Z,12.15
2023-03-23T03:31:17.225Z,12.18
2023-03-23T03:32:17.225Z,12.15
2023-03-23T03:33:17.220Z,12.27
2023-03-23T03:34:17.192Z,12.20
2023-03-23T03:35:17.190Z,12.17
2023-03-23T03:36:17.210Z,12.21
2023-03-23T03:37:17.157Z,12.21
2023-03-23T03:38:17.148Z,12.21
2023-03-23T03:39:17.146Z,12.25
2023-03-23T03:40:17.123Z,12.18
2023-03-23T03:41:17.120Z,12.24
2023-03-23T03:42:17.111Z,12.22
2023-03-23T03:43:17.090Z,12.17
2023-03-23T03:44:17.081Z,12.20
2023-03-23T03:45:17.072Z,12.24
2023-03-23T03:46:17.051Z,12.35
2023-03-23T03:47:17.040Z,12.32
2023-03-23T03:48:17.032Z,12.36
2023-03-23T03:49:17.038Z,12.35
2023-03-23T03:50:17.024Z,12.36
2023-03-23T03:51:17.014Z,12.35
2023-03-23T03:52:16.992Z,12.40
2023-03-23T03:53:16.982Z,12.39
2023-03-23T03:54:17.955Z,12.49
2023-03-23T03:55:16.968Z,12.35
2023-03-23T03:56:16.943Z,12.42
2023-03-23T03:57:16.928Z,12.46
2023-03-23T03:58:16.917Z,12.36
2023-03-23T03:59:21.425Z,12.42
2023-03-23T04:00:16.917Z,12.45
2023-03-23T04:01:16.892Z,12.53
2023-03-23T04:02:16.882Z,12.39
2023-03-23T04:03:16.865Z,12.46
2023-03-23T04:04:16.875Z,12.43
2023-03-23T04:05:16.862Z,12.46
2023-03-23T04:06:16.833Z,12.46
2023-03-23T04:07:16.828Z,12.49
2023-03-23T04:08:16.801Z,12.47
2023-03-23T04:09:16.798Z,12.50
2023-03-23T04:10:16.791Z,12.46
2023-03-23T04:11:32.520Z,12.45
2023-03-23T04:12:17.781Z,12.49
2023-03-23T04:13:16.757Z,12.45
2023-03-23T04:14:16.732Z,12.50
2023-03-23T04:15:16.730Z,12.42
2023-03-23T04:16:16.727Z,12.39
2023-03-23T04:17:16.701Z,12.42
2023-03-23T04:18:16.694Z,12.43
2023-03-23T04:19:16.675Z,12.42
2023-03-23T04:20:16.666Z,12.40
2023-03-23T04:21:17.693Z,12.50
2023-03-23T04:22:16.658Z,12.31
2023-03-23T04:23:16.862Z,12.31
2023-03-23T04:24:23.409Z,12.36
2023-03-23T04:25:17.614Z,12.31
2023-03-23T04:26:16.623Z,12.22
2023-03-23T04:27:16.594Z,12.22
2023-03-23T04:28:16.584Z,12.17
2023-03-23T04:29:16.573Z,12.13
2023-03-23T04:30:16.552Z,12.22
2023-03-23T04:31:16.559Z,12.21
2023-03-23T04:32:16.543Z,12.09
2023-03-23T04:33:16.532Z,12.06
2023-03-23T04:34:17.519Z,12.07
2023-03-23T04:35:16.520Z,12.10
2023-03-23T04:36:16.521Z,12.06
2023-03-23T04:37:16.506Z,12.09
2023-03-23T04:38:16.469Z,12.04
2023-03-23T04:39:16.470Z,12.07
2023-03-23T04:40:16.456Z,12.06
2023-03-23T04:41:16.430Z,12.04
2023-03-23T04:42:16.430Z,12.09
2023-03-23T04:43:16.420Z,12.03
2023-03-23T04:44:16.399Z,12.09
2023-03-23T04:45:16.385Z,12.12
2023-03-23T04:46:16.374Z,12.12
2023-03-23T04:47:16.367Z,12.04
2023-03-23T04:48:16.373Z,12.03
2023-03-23T04:49:16.357Z,12.22
2023-03-23T04:50:16.348Z,12.18
2023-03-23T04:51:16.319Z,12.18
2023-03-23T04:52:16.316Z,12.21
2023-03-23T04:53:16.317Z,12.20
2023-03-23T04:54:16.302Z,12.15
2023-03-23T04:55:16.280Z,12.15
2023-03-23T04:56:16.278Z,12.24
2023-03-23T04:57:16.250Z,12.21
2023-03-23T04:58:16.237Z,12.18
2023-03-23T04:59:16.231Z,12.21
2023-03-23T05:00:16.227Z,12.28
2023-03-23T05:01:16.226Z,12.25
2023-03-23T05:02:16.188Z,12.28
2023-03-23T05:03:16.184Z,12.24
2023-03-23T05:04:16.167Z,12.32
2023-03-23T05:05:16.167Z,12.29
2023-03-23T05:06:16.140Z,12.27
2023-03-23T05:07:16.158Z,12.32
2023-03-23T05:08:16.122Z,12.21
2023-03-23T05:09:16.129Z,12.32
2023-03-23T05:10:16.117Z,12.28
2023-03-23T05:11:17.095Z,12.24
2023-03-23T05:12:16.077Z,12.27
2023-03-23T05:13:16.079Z,12.36
2023-03-23T05:14:16.056Z,12.28
2023-03-23T05:15:16.046Z,12.36
2023-03-23T05:16:16.032Z,12.32
2023-03-23T05:17:16.060Z,12.36
2023-03-23T05:18:16.017Z,12.39
2023-03-23T05:19:16.017Z,12.32
2023-03-23T05:20:15.988Z,12.37
2023-03-23T05:21:15.983Z,12.43
2023-03-23T05:22:15.986Z,12.42
2023-03-23T05:23:15.977Z,12.42
2023-03-23T05:24:15.941Z,12.37
2023-03-23T05:25:15.951Z,12.40
2023-03-23T05:26:15.928Z,12.39
2023-03-23T05:27:15.912Z,12.36
2023-03-23T05:28:15.904Z,12.32
2023-03-23T05:29:15.886Z,12.36
2023-03-23T05:30:15.905Z,12.31
2023-03-23T05:31:15.861Z,12.39
2023-03-23T05:32:15.852Z,12.37
2023-03-23T05:33:15.837Z,12.32
2023-03-23T05:34:15.830Z,12.37
2023-03-23T05:35:15.824Z,12.36
2023-03-23T05:36:15.846Z,12.43
2023-03-23T05:37:15.795Z,12.40
2023-03-23T05:38:15.787Z,12.45
2023-03-23T05:39:15.772Z,12.46
2023-03-23T05:40:15.768Z,12.47
2023-03-23T05:41:16.956Z,12.45
2023-03-23T05:42:15.734Z,12.43
2023-03-23T05:43:15.725Z,12.45
2023-03-23T05:44:15.718Z,12.43
2023-03-23T05:45:15.719Z,12.45
2023-03-23T05:46:15.690Z,12.45
2023-03-23T05:47:15.678Z,12.42
2023-03-23T05:48:15.674Z,12.39
2023-03-23T05:49:15.652Z,12.47
2023-03-23T05:50:15.644Z,12.45
2023-03-23T05:51:15.651Z,12.46
2023-03-23T05:52:15.625Z,12.46
2023-03-23T05:53:15.613Z,12.50
2023-03-23T05:54:15.599Z,12.45
2023-03-23T05:55:15.584Z,12.42
2023-03-23T05:56:15.594Z,12.50
2023-03-23T05:57:15.588Z,12.57
2023-03-23T05:58:15.551Z,12.53
2023-03-23T05:59:15.546Z,12.50
2023-03-23T06:00:15.541Z,12.40
2023-03-23T06:01:15.531Z,12.43
2023-03-23T06:02:15.515Z,12.54
2023-03-23T06:03:15.499Z,12.57
2023-03-23T06:04:15.532Z,12.50
2023-03-23T06:05:15.495Z,12.53
2023-03-23T06:06:15.467Z,12.49
2023-03-23T06:07:15.476Z,12.57
2023-03-23T06:08:15.445Z,12.47
2023-03-23T06:09:15.435Z,12.54
2023-03-23T06:10:15.430Z,12.42
2023-03-23T06:11:15.409Z,12.47
2023-03-23T06:12:15.408Z,12.42
2023-03-23T06:13:15.403Z,12.46
2023-03-23T06:14:15.402Z,12.47
2023-03-23T06:15:15.398Z,12.46
2023-03-23T06:16:15.360Z,12.50
2023-03-23T06:17:15.342Z,12.39
2023-03-23T06:18:15.331Z,12.57
2023-03-23T06:19:15.314Z,12.64
2023-03-23T06:20:15.348Z,12.57
2023-03-23T06:21:18.548Z,12.54
2023-03-23T06:22:15.285Z,12.58
2023-03-23T06:23:15.267Z,12.54
2023-03-23T06:24:15.266Z,12.58
2023-03-23T06:25:15.299Z,12.65
2023-03-23T06:26:15.244Z,12.64
2023-03-23T06:27:17.027Z,12.55
2023-03-23T06:28:15.225Z,12.60
2023-03-23T06:29:15.225Z,12.61
2023-03-23T06:30:15.202Z,12.61
2023-03-23T06:31:15.190Z,12.58
2023-03-23T06:32:15.173Z,12.62
2023-03-23T06:33:15.161Z,12.65
2023-03-23T06:34:15.147Z,12.60
2023-03-23T06:35:15.148Z,12.65
2023-03-23T06:36:15.173Z,12.70
2023-03-23T06:37:15.117Z,12.75
2023-03-23T06:38:15.105Z,12.73
2023-03-23T06:39:15.090Z,12.75
2023-03-23T06:40:15.133Z,12.79
2023-03-23T06:41:15.079Z,12.75
2023-03-23T06:42:15.059Z,12.76
2023-03-23T06:43:15.050Z,12.75
2023-03-23T06:44:15.059Z,12.79
2023-03-23T06:45:15.041Z,12.75
2023-03-23T06:46:15.027Z,12.83
2023-03-23T06:47:15.016Z,12.86
2023-03-23T06:48:15.018Z,12.87
2023-03-23T06:49:14.985Z,12.82
2023-03-23T06:50:14.970Z,12.91
2023-03-23T06:51:14.956Z,12.80
2023-03-23T06:52:14.945Z,12.85
2023-03-23T06:53:14.931Z,12.93
2023-03-23T06:54:14.940Z,12.86
2023-03-23T06:55:14.913Z,12.83
2023-03-23T06:56:14.899Z,12.79
2023-03-23T06:57:14.893Z,12.87
2023-03-23T06:58:14.880Z,12.87
2023-03-23T06:59:14.865Z,12.91
2023-03-23T07:00:14.862Z,12.97
2023-03-23T07:01:14.876Z,12.95
2023-03-23T07:02:14.832Z,13.16
2023-03-23T07:03:14.833Z,13.30
2023-03-23T07:04:14.817Z,13.16
2023-03-23T07:05:14.795Z,13.28
2023-03-23T07:06:14.787Z,13.35
2023-03-23T07:07:14.795Z,13.37
2023-03-23T07:08:14.763Z,13.38
2023-03-23T07:09:14.758Z,13.42
2023-03-23T07:10:14.747Z,13.39
2023-03-23T07:11:14.734Z,13.38
2023-03-23T07:12:14.741Z,13.52
2023-03-23T07:13:14.712Z,13.52
2023-03-23T07:14:14.697Z,13.57
2023-03-23T07:15:14.694Z,13.60
2023-03-23T07:16:14.679Z,13.56
2023-03-23T07:17:14.697Z,13.49
2023-03-23T07:18:14.667Z,13.38
2023-03-23T07:19:14.634Z,13.35
2023-03-23T07:20:14.631Z,13.31
2023-03-23T07:21:14.624Z,13.30
2023-03-23T07:22:14.605Z,13.31
2023-03-23T07:23:14.611Z,13.28
2023-03-23T07:24:14.582Z,13.20
2023-03-23T07:25:14.642Z,13.30
2023-03-23T07:26:14.559Z,13.18
2023-03-23T07:27:14.563Z,13.19
2023-03-23T07:28:14.545Z,13.20
2023-03-23T07:29:14.533Z,13.09
2023-03-23T07:30:14.512Z,13.30
2023-03-23T07:31:14.528Z,13.25
2023-03-23T07:32:14.499Z,13.16
2023-03-23T07:33:14.516Z,13.13
2023-03-23T07:34:14.470Z,13.18
2023-03-23T07:35:14.452Z,13.15
2023-03-23T07:36:14.476Z,13.19
2023-03-23T07:37:14.428Z,13.15
2023-03-23T07:38:14.418Z,13.12
2023-03-23T07:39:14.423Z,13.16
2023-03-23T07:40:14.402Z,13.16
2023-03-23T07:41:14.399Z,13.11
2023-03-23T07:42:14.387Z,13.18
2023-03-23T07:43:14.363Z,13.18
2023-03-23T07:44:14.355Z,13.08
2023-03-23T07:45:14.350Z,13.15
2023-03-23T07:46:14.336Z,13.18
2023-03-23T07:47:14.318Z,13.11
2023-03-23T07:48:21.164Z,13.18
2023-03-23T07:49:15.318Z,13.09
2023-03-23T07:50:14.308Z,13.16
2023-03-23T07:51:14.269Z,13.16
2023-03-23T07:52:14.261Z,13.13
2023-03-23T07:53:14.278Z,13.09
2023-03-23T07:54:14.238Z,13.16
2023-03-23T07:55:14.232Z,13.19
2023-03-23T07:56:14.241Z,13.13
2023-03-23T07:57:14.200Z,13.11
2023-03-23T07:58:14.193Z,13.22
2023-03-23T07:59:14.204Z,13.13
2023-03-23T08:00:14.169Z,13.12
2023-03-23T08:01:14.162Z,13.08
2023-03-23T08:02:14.147Z,13.16
2023-03-23T08:03:14.129Z,13.08
2023-03-23T08:04:14.136Z,13.11
2023-03-23T08:05:14.137Z,13.15
2023-03-23T08:06:14.123Z,13.13
2023-03-23T08:07:14.098Z,13.15
2023-03-23T08:08:15.103Z,13.20
2023-03-23T08:09:14.073Z,13.15
2023-03-23T08:10:14.058Z,13.13
2023-03-23T08:11:14.049Z,13.15
2023-03-23T08:12:14.032Z,13.16
2023-03-23T08:13:14.028Z,13.18
2023-03-23T08:14:16.705Z,13.25
2023-03-23T08:15:15.015Z,13.16
2023-03-23T08:16:13.984Z,13.31
2023-03-23T08:17:13.988Z,13.22
2023-03-23T08:18:13.964Z,13.31
2023-03-23T08:19:14.049Z,13.31
2023-03-23T08:20:13.956Z,13.28
2023-03-23T08:21:13.951Z,13.25
2023-03-23T08:22:13.922Z,13.16
2023-03-23T08:23:13.914Z,13.12
2023-03-23T08:24:13.893Z,13.05
2023-03-23T08:25:13.884Z,13.22
2023-03-23T08:26:13.870Z,13.15
2023-03-23T08:27:13.854Z,13.15
2023-03-23T08:28:13.853Z,13.15
2023-03-23T08:29:13.855Z,13.15
2023-03-23T08:30:13.823Z,13.13
2023-03-23T08:31:13.821Z,13.19
2023-03-23T08:32:13.806Z,13.12
2023-03-23T08:33:13.792Z,13.15
2023-03-23T08:34:13.873Z,13.16
2023-03-23T08:35:13.789Z,13.12
2023-03-23T08:36:13.783Z,13.13
2023-03-23T08:37:13.761Z,13.22
2023-03-23T08:38:13.733Z,13.28
2023-03-23T08:39:13.713Z,13.11
2023-03-23T08:40:14.178Z,13.09
2023-03-23T08:41:13.708Z,13.15
2023-03-23T08:42:13.699Z,13.12
2023-03-23T08:43:13.668Z,13.05
2023-03-23T08:44:13.669Z,12.98
2023-03-23T08:45:13.646Z,13.00
2023-03-23T08:46:13.639Z,12.90
2023-03-23T08:47:13.640Z,12.87
2023-03-23T08:48:13.629Z,12.82
2023-03-23T08:49:13.603Z,12.68
2023-03-23T08:50:13.598Z,12.60
2023-03-23T08:51:13.596Z,12.36
2023-03-23T08:52:13.585Z,12.27
2023-03-23T08:53:13.609Z,12.18
2023-03-23T08:54:13.565Z,12.10
2023-03-23T08:55:13.542Z,12.04
2023-03-23T08:56:13.543Z,11.90
2023-03-23T08:57:13.562Z,11.62
2023-03-23T08:58:13.535Z,11.57
2023-03-23T08:59:13.506Z,11.47
2023-03-23T09:00:13.491Z,11.43
2023-03-23T09:01:13.471Z,11.35
2023-03-23T09:02:13.490Z,11.26
2023-03-23T09:03:13.482Z,11.27
2023-03-23T09:04:13.436Z,11.23
2023-03-23T09:05:13.424Z,11.15
2023-03-23T09:06:13.444Z,11.12
2023-03-23T09:07:13.405Z,11.18
2023-03-23T09:08:20.530Z,11.18
2023-03-23T09:09:13.377Z,11.19
2023-03-23T09:10:13.406Z,11.26
2023-03-23T09:11:13.352Z,11.22
2023-03-23T09:12:13.345Z,11.22
2023-03-23T09:13:13.339Z,11.22
2023-03-23T09:14:13.318Z,11.15
2023-03-23T09:15:13.701Z,11.07
2023-03-23T09:16:13.313Z,11.08
2023-03-23T09:17:13.294Z,10.92
2023-03-23T09:18:13.277Z,10.90
2023-03-23T09:19:13.266Z,10.93
2023-03-23T09:20:13.256Z,10.99
2023-03-23T09:21:18.722Z,10.97
2023-03-23T09:22:13.260Z,11.00
2023-03-23T09:23:13.228Z,10.94
2023-03-23T09:24:14.083Z,11.02
2023-03-23T09:25:13.475Z,11.04
2023-03-23T09:26:13.188Z,10.96
2023-03-23T09:27:13.196Z,11.04
2023-03-23T09:28:13.168Z,11.07
2023-03-23T09:29:13.152Z,11.08
2023-03-23T09:30:13.150Z,11.07
2023-03-23T09:31:13.154Z,11.12
2023-03-23T09:32:13.126Z,11.17
2023-03-23T09:33:13.115Z,11.19
2023-03-23T09:34:13.098Z,11.22
2023-03-23T09:35:13.086Z,11.30
2023-03-23T09:36:13.126Z,11.44
2023-03-23T09:37:13.096Z,11.47
2023-03-23T09:38:13.054Z,11.52
2023-03-23T09:39:13.042Z,11.48
2023-03-23T09:40:13.099Z,11.55
2023-03-23T09:41:13.018Z,11.73
2023-03-23T09:42:13.008Z,11.70
2023-03-23T09:43:13.068Z,11.69
2023-03-23T09:44:13.001Z,11.69
2023-03-23T09:45:12.973Z,11.66
2023-03-23T09:46:12.962Z,11.63
2023-03-23T09:47:12.980Z,11.72
2023-03-23T09:48:12.942Z,11.65
2023-03-23T09:49:12.931Z,11.63
2023-03-23T09:50:12.953Z,11.62
2023-03-23T09:51:12.911Z,11.59
2023-03-23T09:52:12.894Z,11.63
2023-03-23T09:53:12.904Z,11.62
2023-03-23T09:54:12.891Z,11.52
2023-03-23T09:55:12.865Z,11.51
2023-03-23T09:56:12.878Z,11.45
2023-03-23T09:57:12.848Z,11.48
2023-03-23T09:58:12.857Z,11.47
2023-03-23T09:59:12.820Z,11.51
2023-03-23T10:00:12.826Z,11.47
2023-03-23T10:01:12.795Z,11.44
2023-03-23T10:02:12.779Z,11.40
2023-03-23T10:03:12.790Z,11.48
2023-03-23T10:04:12.766Z,11.44
2023-03-23T10:05:12.756Z,11.44
2023-03-23T10:06:12.735Z,11.54
2023-03-23T10:07:12.727Z,11.59
2023-03-23T10:08:12.722Z,11.51
2023-03-23T10:09:12.720Z,11.52
2023-03-23T10:10:12.691Z,11.52
2023-03-23T10:11:12.684Z,11.44
2023-03-23T10:12:12.731Z,11.52
2023-03-23T10:13:12.660Z,11.55
2023-03-23T10:14:12.654Z,11.62
2023-03-23T10:15:12.645Z,11.44
2023-03-23T10:16:12.624Z,11.45
2023-03-23T10:17:12.624Z,11.45
2023-03-23T10:18:12.612Z,11.48
2023-03-23T10:19:12.592Z,11.37
2023-03-23T10:20:12.602Z,11.43
2023-03-23T10:21:12.571Z,11.41
2023-03-23T10:22:12.556Z,11.45
2023-03-23T10:23:12.549Z,11.41
2023-03-23T10:24:12.530Z,11.32
2023-03-23T10:25:12.525Z,11.44
2023-03-23T10:26:12.548Z,11.41
2023-03-23T10:27:12.503Z,11.55
2023-03-23T10:28:12.513Z,11.48
2023-03-23T10:29:12.480Z,11.40
2023-03-23T10:30:12.464Z,11.50
2023-03-23T10:31:12.466Z,11.48
2023-03-23T10:32:12.465Z,11.40
2023-03-23T10:33:12.437Z,11.35
2023-03-23T10:34:12.419Z,11.37
2023-03-23T10:35:12.418Z,11.41
2023-03-23T10:36:12.432Z,11.55
2023-03-23T10:37:12.413Z,11.60
2023-03-23T10:38:12.387Z,11.65
2023-03-23T10:39:12.379Z,11.62
2023-03-23T10:40:12.360Z,11.63
2023-03-23T10:41:12.350Z,11.59
2023-03-23T10:42:12.340Z,11.55
2023-03-23T10:43:12.343Z,11.62
2023-03-23T10:44:12.337Z,11.68
2023-03-23T10:45:12.300Z,11.66
2023-03-23T10:46:17.565Z,11.77
2023-03-23T10:47:13.285Z,12.03
2023-03-23T10:48:12.274Z,12.27
2023-03-23T10:49:12.270Z,12.60
2023-03-23T10:50:12.244Z,12.64
2023-03-23T10:51:12.238Z,12.62
2023-03-23T10:52:12.245Z,12.54
2023-03-23T10:53:12.212Z,12.58
2023-03-23T10:54:12.198Z,12.39
2023-03-23T10:55:12.193Z,12.31
2023-03-23T10:56:12.173Z,12.39
2023-03-23T10:57:12.187Z,12.39
2023-03-23T10:58:12.154Z,12.40
2023-03-23T10:59:12.143Z,12.55
2023-03-23T11:00:12.163Z,12.50
2023-03-23T11:01:12.126Z,12.58
2023-03-23T11:02:15.710Z,12.49
2023-03-23T11:03:13.115Z,12.53
2023-03-23T11:04:12.080Z,12.40
2023-03-23T11:05:20.064Z,12.40
2023-03-23T11:06:13.071Z,12.31
2023-03-23T11:07:12.052Z,12.36
2023-03-23T11:08:12.042Z,12.47
2023-03-23T11:09:12.028Z,12.42
2023-03-23T11:10:12.018Z,12.31
2023-03-23T11:11:12.012Z,12.35
2023-03-23T11:12:11.992Z,12.31
2023-03-23T11:13:12.024Z,12.31
2023-03-23T11:14:11.970Z,12.28
2023-03-23T11:15:11.966Z,12.37
2023-03-23T11:16:11.972Z,12.40
2023-03-23T11:17:15.863Z,12.39
2023-03-23T11:18:11.947Z,12.45
2023-03-23T11:19:11.938Z,12.54
2023-03-23T11:20:11.901Z,12.45
2023-03-23T11:21:11.911Z,12.43
2023-03-23T11:22:11.877Z,12.55
2023-03-23T11:23:11.873Z,12.57
2023-03-23T11:24:11.889Z,12.58
2023-03-23T11:25:14.040Z,12.68
2023-03-23T11:26:11.832Z,12.67
2023-03-23T11:27:11.840Z,12.67
2023-03-23T11:28:11.811Z,12.80
2023-03-23T11:29:11.802Z,12.93
2023-03-23T11:30:11.809Z,13.16
2023-03-23T11:31:11.776Z,13.31
2023-03-23T11:32:11.784Z,13.42
2023-03-23T11:33:11.763Z,13.63
2023-03-23T11:34:11.750Z,13.78
2023-03-23T11:35:16.334Z,13.83
2023-03-23T11:36:11.763Z,13.78
2023-03-23T11:37:11.715Z,13.89
2023-03-23T11:38:11.693Z,13.89
2023-03-23T11:39:11.689Z,13.97
2023-03-23T11:40:11.688Z,14.07
2023-03-23T11:41:11.675Z,14.22
2023-03-23T11:42:11.656Z,14.33
2023-03-23T11:43:11.640Z,14.35
2023-03-23T11:44:11.647Z,14.28
2023-03-23T11:45:11.636Z,14.22
2023-03-23T11:46:11.609Z,14.28
2023-03-23T11:47:11.604Z,14.12
2023-03-23T11:48:11.659Z,14.35
2023-03-23T11:49:23.258Z,14.45
2023-03-23T11:50:12.580Z,14.51
2023-03-23T11:51:11.565Z,14.62
2023-03-23T11:52:11.545Z,14.68
2023-03-23T11:53:11.525Z,14.50
2023-03-23T11:54:11.520Z,14.51
2023-03-23T11:55:11.505Z,14.48
2023-03-23T11:56:11.521Z,14.55
2023-03-23T11:57:11.489Z,14.60
2023-03-23T11:58:11.474Z,14.69
2023-03-23T11:59:11.472Z,14.77
2023-03-23T12:00:11.448Z,14.70
2023-03-23T12:01:11.436Z,14.72
2023-03-23T12:02:16.997Z,14.62
2023-03-23T12:03:12.409Z,14.66
2023-03-23T12:04:11.438Z,14.72
2023-03-23T12:05:11.414Z,14.66
2023-03-23T12:06:11.385Z,14.68
2023-03-23T12:07:11.378Z,14.69
2023-03-23T12:08:11.374Z,14.65
2023-03-23T12:09:11.352Z,14.59
2023-03-23T12:10:11.346Z,14.51
2023-03-23T12:11:11.324Z,14.44
2023-03-23T12:12:11.325Z,14.37
2023-03-23T12:13:13.777Z,14.44
2023-03-23T12:14:11.291Z,14.50
2023-03-23T12:15:11.375Z,14.47
2023-03-23T12:16:11.265Z,14.55
2023-03-23T12:17:11.260Z,14.47
2023-03-23T12:18:11.248Z,14.45
2023-03-23T12:19:11.238Z,14.43
2023-03-23T12:20:11.245Z,14.32
2023-03-23T12:21:11.250Z,14.37
2023-03-23T12:22:11.194Z,14.35
2023-03-23T12:23:11.203Z,14.37
2023-03-23T12:24:11.188Z,14.35
2023-03-23T12:25:11.165Z,14.25
2023-03-23T12:26:11.153Z,14.17
2023-03-23T12:27:11.140Z,14.26
2023-03-23T12:28:11.129Z,14.25
2023-03-23T12:29:11.131Z,14.35
2023-03-23T12:30:11.100Z,14.32
2023-03-23T12:31:11.105Z,14.23
2023-03-23T12:32:11.090Z,14.12
2023-03-23T12:33:11.074Z,14.15
2023-03-23T12:34:11.080Z,14.17
2023-03-23T12:35:11.052Z,14.14
2023-03-23T12:36:11.074Z,14.30
2023-03-23T12:37:11.030Z,14.30
2023-03-23T12:38:11.048Z,14.28
2023-03-23T12:39:11.008Z,14.28
2023-03-23T12:40:11.016Z,14.33
2023-03-23T12:41:10.997Z,14.29
2023-03-23T12:42:10.978Z,14.40
2023-03-23T12:43:10.964Z,14.44
2023-03-23T12:44:10.955Z,14.59
2023-03-23T12:45:10.944Z,14.78
2023-03-23T12:46:10.932Z,14.78
2023-03-23T12:47:10.924Z,14.85
2023-03-23T12:48:10.910Z,14.99
2023-03-23T12:49:10.913Z,15.06
2023-03-23T12:50:10.921Z,15.11
2023-03-23T12:51:10.870Z,15.21
2023-03-23T12:52:10.884Z,15.06